createdAt,value
2022-08-07T00:00:20.245Z,71.31
2022-08-07T00:03:08.673Z,70.89
2022-08-07T00:05:52.813Z,70.92
2022-08-07T00:08:44.359Z,70.83
2022-08-07T00:11:29.914Z,70.79
2022-08-07T00:14:25.559Z,70.29
2022-08-07T00:17:11.465Z,70.62
2022-08-07T00:20:03.364Z,70.46
2022-08-07T00:22:51.782Z,70.62
2022-08-07T00:25:41.720Z,70.55
2022-08-07T00:28:22.368Z,70.62
2022-08-07T00:31:21.160Z,70.38
2022-08-07T00:34:02.721Z,70.51
2022-08-07T00:36:52.127Z,70.10
2022-08-07T00:39:33.479Z,70.16
2022-08-07T00:42:25.493Z,70.15
2022-08-07T00:45:16.348Z,70.54
2022-08-07T00:48:09.181Z,70.48
2022-08-07T00:50:51.760Z,70.46
2022-08-07T00:53:50.513Z,70.45
2022-08-07T00:56:51.094Z,70.35
2022-08-07T00:59:39.106Z,70.69
2022-08-07T01:02:28.458Z,70.78
2022-08-07T01:05:20.122Z,71.07
2022-08-07T01:08:05.405Z,71.04
2022-08-07T01:10:58.457Z,71.17
2022-08-07T01:13:56.084Z,71.11
2022-08-07T01:16:46.956Z,71.20
2022-08-07T01:19:32.296Z,71.07
2022-08-07T01:22:29.357Z,70.90
2022-08-07T01:25:40.016Z,71.21
2022-08-07T01:28:19.052Z,70.98
2022-08-07T01:31:03.623Z,71.13
2022-08-07T01:33:55.779Z,71.03
2022-08-07T01:36:42.246Z,70.93
2022-08-07T01:39:39.725Z,70.74
2022-08-07T01:42:58.835Z,70.89
2022-08-07T01:45:47.060Z,70.76
2022-08-07T01:48:41.048Z,70.94
2022-08-07T01:52:02.326Z,70.94
2022-08-07T01:54:57.069Z,71.00
2022-08-07T01:58:06.051Z,70.74
2022-08-07T02:01:09.848Z,71.08
2022-08-07T02:03:57.580Z,70.68
2022-08-07T02:06:47.993Z,70.40
2022-08-07T02:09:58.511Z,70.41
2022-08-07T02:12:57.004Z,70.42
2022-08-07T02:15:53.270Z,70.42
2022-08-07T02:18:47.089Z,70.79
2022-08-07T02:21:55.416Z,70.39
2022-08-07T02:24:44.640Z,70.27
2022-08-07T02:27:36.348Z,70.14
2022-08-07T02:30:24.000Z,70.51
2022-08-07T02:33:15.187Z,70.98
2022-08-07T02:36:30.257Z,70.62
2022-08-07T02:39:16.175Z,71.02
2022-08-07T02:42:10.313Z,70.73
2022-08-07T02:45:16.003Z,71.02
2022-08-07T02:48:10.273Z,71.31
2022-08-07T02:51:04.934Z,71.15
2022-08-07T02:54:00.945Z,71.25
2022-08-07T02:56:50.214Z,70.89
2022-08-07T02:59:34.932Z,71.08
2022-08-07T03:02:26.145Z,71.25
2022-08-07T03:05:10.911Z,71.70
2022-08-07T03:08:07.637Z,71.46
2022-08-07T03:10:53.901Z,72.00
2022-08-07T03:13:49.487Z,72.02
2022-08-07T03:16:39.909Z,72.00
2022-08-07T03:19:28.904Z,72.29
2022-08-07T03:22:30.388Z,72.57
2022-08-07T03:25:21.147Z,72.62
2022-08-07T03:28:09.617Z,73.22
2022-08-07T03:31:24.544Z,73.20
2022-08-07T03:34:18.637Z,73.61
2022-08-07T03:37:16.190Z,73.83
2022-08-07T03:40:14.955Z,74.19
2022-08-07T03:42:58.395Z,74.39
2022-08-07T03:45:49.841Z,74.44
2022-08-07T03:48:45.617Z,74.48
2022-08-07T03:51:59.096Z,74.78
2022-08-07T03:54:57.369Z,74.93
2022-08-07T03:58:33.395Z,75.34
2022-08-07T04:01:13.751Z,75.31
2022-08-07T04:03:57.071Z,75.55
2022-08-07T04:06:44.822Z,75.73
2022-08-07T04:09:38.067Z,75.73
2022-08-07T04:12:37.797Z,75.89
2022-08-07T04:15:28.039Z,75.84
2022-08-07T04:18:58.071Z,76.21
2022-08-07T04:21:17.825Z,76.29
2022-08-07T04:24:07.046Z,76.11
2022-08-07T04:26:55.881Z,76.18
2022-08-07T04:29:58.967Z,76.82
2022-08-07T04:33:07.790Z,76.68
2022-08-07T04:35:59.954Z,76.40
2022-08-07T04:38:47.774Z,76.54
2022-08-07T04:41:36.856Z,76.38
2022-08-07T04:44:26.011Z,76.45
2022-08-07T04:47:56.885Z,76.60
2022-08-07T04:50:29.760Z,76.47
2022-08-07T04:54:01.174Z,76.56
2022-08-07T04:58:12.968Z,76.73
2022-08-07T05:00:11.650Z,76.71
2022-08-07T05:03:16.894Z,76.56
2022-08-07T05:06:19.603Z,76.30
2022-08-07T05:09:08.954Z,76.36
2022-08-07T05:11:58.301Z,76.53
2022-08-07T05:15:04.080Z,76.44
2022-08-07T05:17:56.142Z,76.48
2022-08-07T05:20:43.120Z,76.40
2022-08-07T05:23:43.779Z,76.42
2022-08-07T05:26:30.018Z,76.15
2022-08-07T05:29:24.713Z,76.30
2022-08-07T05:32:16.704Z,76.28
2022-08-07T05:34:59.968Z,76.11
2022-08-07T05:37:43.684Z,76.02
2022-08-07T05:40:28.805Z,75.94
2022-08-07T05:43:17.665Z,75.90
2022-08-07T05:46:01.192Z,76.07
2022-08-07T05:48:58.421Z,76.04
2022-08-07T05:51:46.382Z,76.03
2022-08-07T05:54:44.264Z,75.83
2022-08-07T05:57:45.122Z,76.24
2022-08-07T06:00:26.896Z,74.67
2022-08-07T06:03:18.665Z,70.49
2022-08-07T06:06:01.884Z,67.97
2022-08-07T06:08:51.544Z,64.80
2022-08-07T06:11:32.874Z,63.14
2022-08-07T06:14:28.718Z,59.93
2022-08-07T06:17:14.363Z,59.09
2022-08-07T06:20:04.798Z,55.71
2022-08-07T06:23:02.428Z,55.18
2022-08-07T06:25:59.648Z,53.91
2022-08-07T06:28:41.430Z,52.67
2022-08-07T06:31:46.664Z,51.05
2022-08-07T06:34:40.678Z,49.20
2022-08-07T06:37:44.099Z,47.14
2022-08-07T06:40:35.203Z,47.08
2022-08-07T06:43:23.925Z,46.50
2022-08-07T06:46:20.391Z,45.46
2022-08-07T06:49:21.593Z,45.40
2022-08-07T06:52:12.825Z,45.05
2022-08-07T06:55:33.272Z,44.32
2022-08-07T06:58:06.784Z,43.74
2022-08-07T07:01:05.078Z,42.55
2022-08-07T07:03:55.154Z,42.84
2022-08-07T07:07:00.614Z,42.40
2022-08-07T07:09:42.899Z,43.07
2022-08-07T07:12:48.752Z,42.78
2022-08-07T07:15:37.745Z,43.36
2022-08-07T07:18:48.146Z,42.85
2022-08-07T07:22:04.595Z,43.08
2022-08-07T07:24:58.406Z,44.77
2022-08-07T07:28:03.509Z,43.46
2022-08-07T07:30:53.561Z,42.77
2022-08-07T07:33:39.385Z,43.12
2022-08-07T07:36:32.415Z,43.42
2022-08-07T07:39:25.697Z,43.50
2022-08-07T07:42:20.877Z,43.45
2022-08-07T07:45:10.213Z,43.36
2022-08-07T07:47:54.624Z,42.44
2022-08-07T07:51:01.976Z,42.39
2022-08-07T07:53:53.827Z,43.06
2022-08-07T07:56:43.623Z,42.63
2022-08-07T07:59:52.498Z,41.64
2022-08-07T08:03:00.921Z,41.07
2022-08-07T08:05:55.140Z,39.96
2022-08-07T08:08:41.863Z,39.96
2022-08-07T08:11:59.250Z,40.44
2022-08-07T08:14:31.492Z,39.63
2022-08-07T08:17:58.243Z,40.10
2022-08-07T08:20:36.566Z,39.09
2022-08-07T08:23:38.080Z,39.67
2022-08-07T08:26:50.277Z,38.52
2022-08-07T08:29:54.136Z,37.41
2022-08-07T08:32:41.452Z,36.53
2022-08-07T08:35:39.371Z,36.39
2022-08-07T08:38:34.243Z,36.55
2022-08-07T08:41:57.285Z,36.66
2022-08-07T08:44:44.765Z,37.67
2022-08-07T08:47:52.076Z,37.40
2022-08-07T08:50:47.457Z,36.25
2022-08-07T08:53:45.816Z,35.47
2022-08-07T08:56:37.639Z,35.64
2022-08-07T08:59:42.313Z,35.82
2022-08-07T09:02:38.254Z,35.44
2022-08-07T09:05:38.055Z,35.58
2022-08-07T09:08:40.437Z,35.62
2022-08-07T09:11:51.157Z,36.63
2022-08-07T09:14:41.406Z,35.35
2022-08-07T09:18:01.491Z,35.69
2022-08-07T09:21:01.118Z,34.42
2022-08-07T09:24:31.666Z,34.40
2022-08-07T09:27:22.428Z,33.63
2022-08-07T09:30:10.611Z,33.68
2022-08-07T09:33:40.707Z,34.38
2022-08-07T09:36:27.074Z,33.53
2022-08-07T09:39:53.902Z,33.25
2022-08-07T09:42:50.399Z,32.90
2022-08-07T09:47:50.342Z,33.17
2022-08-07T09:50:00.491Z,32.21
2022-08-07T09:52:33.485Z,32.32
2022-08-07T09:56:03.417Z,34.36
2022-08-07T09:59:14.575Z,33.12
2022-08-07T10:02:55.634Z,32.85
2022-08-07T10:06:17.565Z,33.37
2022-08-07T10:10:00.640Z,35.63
2022-08-07T10:13:55.120Z,34.80
2022-08-07T10:16:49.559Z,35.04
2022-08-07T10:19:47.499Z,37.18
2022-08-07T10:22:50.885Z,38.09
2022-08-07T10:25:43.280Z,39.54
2022-08-07T10:28:57.300Z,39.84
2022-08-07T10:32:01.542Z,38.86
2022-08-07T10:35:14.903Z,38.06
2022-08-07T10:38:35.152Z,38.62
2022-08-07T10:41:47.027Z,39.43
2022-08-07T10:44:40.534Z,38.32
2022-08-07T10:47:53.654Z,37.06
2022-08-07T10:50:51.295Z,36.45
2022-08-07T10:53:44.575Z,37.28
2022-08-07T10:56:44.377Z,37.70
2022-08-07T10:59:37.372Z,36.67
2022-08-07T11:02:38.083Z,36.07
2022-08-07T11:05:49.276Z,35.91
2022-08-07T11:08:47.373Z,36.17
2022-08-07T11:11:36.106Z,36.84
2022-08-07T11:14:43.826Z,37.76
2022-08-07T11:17:47.624Z,37.49
2022-08-07T11:20:41.183Z,35.40
2022-08-07T11:23:38.839Z,35.85
2022-08-07T11:26:29.427Z,36.40
2022-08-07T11:29:41.436Z,36.74
2022-08-07T11:32:48.235Z,37.33
2022-08-07T11:35:58.959Z,36.29
2022-08-07T11:38:50.617Z,35.90
2022-08-07T11:42:02.488Z,35.71
2022-08-07T11:44:58.167Z,35.19
2022-08-07T11:48:29.735Z,35.46
2022-08-07T11:51:44.605Z,34.66
2022-08-07T11:54:54.962Z,33.89
2022-08-07T11:57:59.861Z,38.65
2022-08-07T12:01:01.855Z,36.84
2022-08-07T12:04:10.183Z,36.51
2022-08-07T12:07:09.001Z,36.54
2022-08-07T12:10:16.194Z,35.31
2022-08-07T12:13:03.396Z,37.09
2022-08-07T12:16:06.890Z,37.01
2022-08-07T12:18:56.401Z,35.99
2022-08-07T12:22:37.873Z,35.49
2022-08-07T12:26:03.215Z,35.55
2022-08-07T12:28:39.275Z,36.18
2022-08-07T12:31:53.303Z,35.78
2022-08-07T12:34:49.663Z,35.39
2022-08-07T12:38:10.169Z,35.92
2022-08-07T12:40:52.181Z,34.80
2022-08-07T12:44:02.762Z,34.72
2022-08-07T12:47:21.855Z,35.50
2022-08-07T12:50:39.315Z,35.56
2022-08-07T12:54:03.189Z,34.90
2022-08-07T12:56:42.371Z,34.37
2022-08-07T12:59:54.819Z,34.32
2022-08-07T13:03:07.341Z,34.20
2022-08-07T13:06:21.687Z,34.74
2022-08-07T13:10:37.136Z,34.46
2022-08-07T13:13:04.321Z,34.12
2022-08-07T13:15:59.304Z,33.99
2022-08-07T13:18:58.080Z,33.81
2022-08-07T13:22:01.986Z,34.79
2022-08-07T13:25:06.766Z,33.75
2022-08-07T13:28:11.559Z,33.86
2022-08-07T13:31:12.921Z,34.54
2022-08-07T13:34:32.788Z,34.20
2022-08-07T13:37:19.962Z,33.82
2022-08-07T13:40:36.188Z,32.83
2022-08-07T13:43:24.029Z,33.01
2022-08-07T13:46:23.182Z,32.14
2022-08-07T13:50:34.578Z,32.24
2022-08-07T13:52:36.228Z,32.82
2022-08-07T13:55:38.040Z,32.02
2022-08-07T13:58:56.890Z,31.70
2022-08-07T14:01:51.005Z,32.29
2022-08-07T14:04:55.344Z,30.98
2022-08-07T14:08:00.915Z,32.23
2022-08-07T14:11:14.811Z,30.71
2022-08-07T14:14:02.034Z,31.27
2022-08-07T14:16:55.010Z,31.28
2022-08-07T14:20:43.775Z,31.08
2022-08-07T14:23:31.604Z,31.45
2022-08-07T14:30:06.395Z,31.50
2022-08-07T14:32:50.015Z,31.02
2022-08-07T14:35:44.759Z,31.35
2022-08-07T14:38:33.995Z,30.98
2022-08-07T14:41:34.057Z,30.50
2022-08-07T14:44:35.492Z,30.68
2022-08-07T14:47:18.438Z,30.25
2022-08-07T14:50:11.271Z,30.26
2022-08-07T14:56:30.109Z,31.56
2022-08-07T15:00:05.262Z,31.28
2022-08-07T15:02:34.887Z,31.57
2022-08-07T15:05:25.065Z,31.85
2022-08-07T15:08:07.206Z,30.90
2022-08-07T15:11:07.946Z,30.84
2022-08-07T15:13:58.154Z,31.03
2022-08-07T15:16:55.918Z,31.09
2022-08-07T15:23:20.394Z,30.71
2022-08-07T15:26:21.093Z,31.95
2022-08-07T15:30:09.265Z,32.08
2022-08-07T15:44:57.990Z,31.87
2022-08-07T15:48:00.749Z,31.99
2022-08-07T15:51:08.573Z,32.46
2022-08-07T15:53:55.110Z,32.30
2022-08-07T15:56:44.897Z,32.39
2022-08-07T15:59:39.585Z,32.07
2022-08-07T16:02:34.882Z,32.89
2022-08-07T16:05:31.215Z,32.19
2022-08-07T16:08:31.591Z,32.58
2022-08-07T16:11:39.894Z,32.66
2022-08-07T16:14:49.877Z,33.27
2022-08-07T16:18:01.318Z,33.86
2022-08-07T16:22:01.419Z,34.66
2022-08-07T16:24:09.001Z,34.38
2022-08-07T16:27:02.075Z,35.05
2022-08-07T16:30:31.056Z,34.79
2022-08-07T16:34:02.032Z,34.59
2022-08-07T16:37:01.988Z,35.02
2022-08-07T16:40:23.156Z,35.41
2022-08-07T16:44:03.701Z,35.41
2022-08-07T16:47:09.576Z,35.08
2022-08-07T16:50:37.076Z,35.30
2022-08-07T16:54:06.251Z,35.73
2022-08-07T16:58:00.993Z,35.78
2022-08-07T17:00:46.788Z,36.16
2022-08-07T17:04:00.137Z,36.09
2022-08-07T17:07:03.473Z,36.37
2022-08-07T17:10:06.347Z,36.80
2022-08-07T17:13:04.806Z,36.25
2022-08-07T17:15:59.013Z,37.05
2022-08-07T17:18:53.903Z,37.19
2022-08-07T17:21:50.623Z,36.56
2022-08-07T17:25:11.765Z,36.66
2022-08-07T17:28:11.761Z,37.29
2022-08-07T17:31:16.386Z,36.53
2022-08-07T17:34:18.267Z,37.04
2022-08-07T17:38:04.965Z,37.41
2022-08-07T17:40:30.241Z,37.50
2022-08-07T17:44:01.841Z,36.58
2022-08-07T17:46:41.712Z,37.51
2022-08-07T17:49:44.587Z,37.84
2022-08-07T17:52:39.640Z,37.38
2022-08-07T17:55:55.571Z,37.44
2022-08-07T17:58:47.718Z,37.97
2022-08-07T18:01:36.867Z,37.96
2022-08-07T18:04:35.724Z,38.00
2022-08-07T18:07:28.557Z,37.97
2022-08-07T18:10:33.127Z,38.35
2022-08-07T18:13:40.770Z,38.77
2022-08-07T18:16:57.706Z,38.61
2022-08-07T18:21:07.006Z,39.07
2022-08-07T18:22:57.695Z,39.19
2022-08-07T18:26:00.990Z,39.36
2022-08-07T18:28:58.491Z,39.37
2022-08-07T18:31:59.662Z,39.75
2022-08-07T18:35:22.683Z,39.88
2022-08-07T18:38:55.628Z,39.79
2022-08-07T18:41:45.978Z,40.64
2022-08-07T18:45:39.971Z,40.84
2022-08-07T18:48:00.678Z,41.19
2022-08-07T18:51:05.273Z,41.67
2022-08-07T18:53:59.660Z,41.82
2022-08-07T18:57:29.898Z,42.08
2022-08-07T19:00:32.691Z,42.50
2022-08-07T19:03:37.676Z,42.75
2022-08-07T19:06:35.633Z,42.63
2022-08-07T19:09:55.957Z,43.28
2022-08-07T19:13:10.296Z,43.57
2022-08-07T19:16:05.503Z,44.01
2022-08-07T19:19:07.842Z,44.62
2022-08-07T19:22:04.111Z,44.77
2022-08-07T19:24:48.829Z,45.23
2022-08-07T19:28:56.385Z,45.67
2022-08-07T19:31:42.873Z,45.92
2022-08-07T19:34:02.606Z,46.42
2022-08-07T19:36:56.585Z,46.84
2022-08-07T19:40:02.350Z,47.51
2022-08-07T19:42:51.581Z,47.95
2022-08-07T19:46:05.795Z,48.25
2022-08-07T19:48:54.759Z,48.45
2022-08-07T19:51:52.498Z,48.98
2022-08-07T19:54:56.401Z,49.80
2022-08-07T19:58:03.121Z,49.74
2022-08-07T20:00:55.945Z,50.63
2022-08-07T20:03:38.331Z,51.39
2022-08-07T20:06:31.563Z,51.47
2022-08-07T20:10:12.619Z,52.03
2022-08-07T20:12:35.940Z,52.68
2022-08-07T20:15:22.250Z,52.94
2022-08-07T20:18:14.748Z,53.70
2022-08-07T20:21:03.395Z,53.40
2022-08-07T20:24:10.765Z,54.24
2022-08-07T20:26:55.713Z,54.75
2022-08-07T20:29:57.539Z,54.54
2022-08-07T20:32:51.528Z,55.42
2022-08-07T20:35:51.940Z,55.89
2022-08-07T20:39:00.294Z,56.04
2022-08-07T20:41:49.491Z,56.45
2022-08-07T20:44:40.760Z,56.84
2022-08-07T20:47:56.392Z,57.35
2022-08-07T20:50:41.711Z,57.40
2022-08-07T20:54:02.076Z,58.02
2022-08-07T20:56:48.583Z,58.39
2022-08-07T21:00:07.710Z,58.51
2022-08-07T21:02:59.132Z,58.31
2022-08-07T21:05:56.368Z,58.81
2022-08-07T21:08:49.456Z,59.15
2022-08-07T21:11:50.541Z,59.34
2022-08-07T21:14:35.679Z,59.54
2022-08-07T21:18:03.694Z,59.38
2022-08-07T21:20:33.647Z,59.89
2022-08-07T21:23:36.433Z,60.21
2022-08-07T21:26:42.922Z,60.13
2022-08-07T21:29:38.078Z,60.30
2022-08-07T21:32:47.430Z,60.46
2022-08-07T21:36:05.766Z,60.73
2022-08-07T21:38:55.531Z,60.86
2022-08-07T21:42:00.539Z,61.36
2022-08-07T21:44:51.622Z,61.29
2022-08-07T21:47:50.397Z,61.50
2022-08-07T21:50:39.639Z,61.58
2022-08-07T21:53:37.040Z,61.82
2022-08-07T21:56:47.027Z,62.01
2022-08-07T22:00:04.404Z,62.34
2022-08-07T22:02:53.513Z,62.26
2022-08-07T22:05:51.615Z,62.93
2022-08-07T22:08:41.805Z,62.85
2022-08-07T22:11:25.006Z,63.48
2022-08-07T22:14:34.559Z,63.61
2022-08-07T22:17:27.115Z,63.82
2022-08-07T22:20:26.358Z,63.68
2022-08-07T22:23:25.479Z,64.26
2022-08-07T22:26:25.566Z,64.40
2022-08-07T22:29:22.468Z,64.50
2022-08-07T22:32:27.557Z,64.59
2022-08-07T22:35:18.364Z,64.79
2022-08-07T22:38:24.153Z,64.52
2022-08-07T22:41:14.299Z,64.50
2022-08-07T22:44:13.000Z,64.57
2022-08-07T22:47:28.361Z,65.19
2022-08-07T22:50:37.879Z,65.26
2022-08-07T22:54:06.639Z,65.08
2022-08-07T22:57:26.063Z,65.37
2022-08-07T23:00:12.646Z,65.84
2022-08-07T23:03:23.839Z,65.59
2022-08-07T23:06:31.332Z,66.13
2022-08-07T23:10:04.865Z,66.31
2022-08-07T23:12:57.308Z,66.64
2022-08-07T23:16:06.992Z,66.78
2022-08-07T23:19:19.449Z,66.74
2022-08-07T23:22:39.152Z,66.93
2022-08-07T23:25:41.538Z,66.86
2022-08-07T23:28:37.491Z,66.95
2022-08-07T23:32:49.170Z,67.77
2022-08-07T23:35:01.055Z,67.09
2022-08-07T23:38:04.057Z,67.61
2022-08-07T23:40:54.471Z,67.60
2022-08-07T23:44:24.835Z,67.92
2022-08-07T23:47:30.658Z,68.48
2022-08-07T23:50:44.223Z,68.55
2022-08-07T23:53:51.800Z,68.71
2022-08-07T23:56:58.216Z,68.73
